Time;durP1;ratioP1;P1;durP2;ratioP2;P2;SDS_P1;SDS_P2;PMS_P1;PMS_P2;Temp;Humidity;BMP_temperature;BMP_pressure;BME280_temperature;BME280_humidity;BME280_pressure;Samples;Min_cycle;Max_cycle;Signal;HPM_P1;HPM_P2
2020/12/05 00:01:04;;;;;;;59.83;16.13;;;6.40;89.20;;;;;;5025816;28;20029;-55
2020/12/05 00:03:30;;;;;;;60.08;15.35;;;6.50;89.30;;;;;;5031363;28;20034;-57
2020/12/05 00:05:55;;;;;;;60.17;16.63;;;6.40;89.20;;;;;;5030067;28;20389;-56
2020/12/05 00:08:21;;;;;;;59.38;15.52;;;6.40;89.20;;;;;;5026834;28;20076;-56
2020/12/05 00:10:46;;;;;;;60.13;17.60;;;6.40;89.20;;;;;;5031773;28;20033;-55
2020/12/05 00:13:12;;;;;;;62.08;16.17;;;6.40;89.20;;;;;;5029366;28;21293;-56
2020/12/05 00:15:37;;;;;;;50.42;16.35;;;6.40;89.20;;;;;;5035921;28;20090;-55
2020/12/05 00:18:03;;;;;;;56.63;16.55;;;6.40;89.30;;;;;;5027920;28;20389;-56
2020/12/05 00:20:29;;;;;;;71.63;16.00;;;6.40;89.30;;;;;;5025404;28;20025;-56
2020/12/05 00:22:54;;;;;;;51.25;14.93;;;6.40;89.40;;;;;;5028789;28;20034;-56
2020/12/05 00:25:19;;;;;;;47.88;15.45;;;6.40;89.40;;;;;;5028488;28;20148;-55
2020/12/05 00:27:45;;;;;;;52.50;16.27;;;6.40;89.40;;;;;;5027761;28;20095;-56
2020/12/05 00:30:10;;;;;;;51.08;15.85;;;6.40;89.40;;;;;;5027869;28;20078;-56
2020/12/05 00:32:36;;;;;;;44.30;15.98;;;6.40;89.40;;;;;;5029399;28;20034;-56
2020/12/05 00:35:02;;;;;;;57.25;15.63;;;6.30;90.00;;;;;;5027380;28;20037;-55
2020/12/05 00:37:29;;;;;;;40.80;14.65;;;6.30;89.30;;;;;;5025360;28;20104;-55
2020/12/05 00:39:54;;;;;;;45.70;14.75;;;6.40;89.40;;;;;;5029659;28;20481;-56
2020/12/05 00:42:20;;;;;;;63.40;16.00;;;6.30;89.40;;;;;;5028461;28;20053;-55
2020/12/05 00:44:45;;;;;;;41.53;15.70;;;6.30;89.40;;;;;;5030186;28;20025;-55
2020/12/05 00:47:11;;;;;;;51.45;15.40;;;6.30;89.40;;;;;;5027629;28;20409;-55
2020/12/05 00:49:37;;;;;;;42.33;14.55;;;6.30;89.40;;;;;;5026384;28;20069;-56
2020/12/05 00:52:02;;;;;;;46.83;14.35;;;6.40;89.50;;;;;;5029008;28;20030;-55
2020/12/05 00:54:28;;;;;;;51.88;15.95;;;6.30;89.50;;;;;;5033394;28;20378;-56
2020/12/05 00:56:53;;;;;;;45.35;14.70;;;6.30;89.50;;;;;;5030274;28;20049;-56
2020/12/05 00:59:19;;;;;;;49.03;15.40;;;6.30;89.50;;;;;;5027622;28;20045;-56
2020/12/05 01:01:44;;;;;;;45.47;15.23;;;6.30;89.50;;;;;;5021927;28;20117;-56
2020/12/05 01:04:10;;;;;;;47.10;15.10;;;6.30;89.50;;;;;;5027937;28;20327;-56
2020/12/05 01:06:35;;;;;;;41.70;15.07;;;6.30;89.60;;;;;;5009292;28;20061;-56
2020/12/05 01:09:01;;;;;;;45.35;14.57;;;6.30;89.60;;;;;;5028644;28;20037;-56
2020/12/05 01:11:26;;;;;;;45.03;14.77;;;6.20;89.60;;;;;;5028618;28;20052;-56
2020/12/05 01:13:52;;;;;;;44.50;14.45;;;6.20;89.60;;;;;;5030856;28;20028;-56
2020/12/05 01:16:18;;;;;;;42.92;14.57;;;6.20;89.60;;;;;;5036647;28;20096;-56
2020/12/05 01:18:43;;;;;;;37.67;14.43;;;6.20;89.60;;;;;;5010939;28;20032;-55
2020/12/05 01:21:12;;;;;;;39.28;13.68;;;6.20;89.70;;;;;;5014503;28;20415;-55
2020/12/05 01:23:38;;;;;;;49.75;14.13;;;6.20;89.70;;;;;;5026672;28;20830;-56
2020/12/05 01:26:04;;;;;;;44.25;14.60;;;6.20;89.70;;;;;;5036187;28;20473;-56
2020/12/05 01:28:30;;;;;;;39.15;14.65;;;6.20;89.70;;;;;;5042316;28;20087;-56
2020/12/05 01:30:55;;;;;;;40.88;13.95;;;6.20;89.70;;;;;;5030679;28;20041;-55
2020/12/05 01:33:21;;;;;;;36.83;13.52;;;6.10;89.70;;;;;;5035534;28;20025;-56
2020/12/05 01:35:46;;;;;;;33.30;13.30;;;6.10;89.70;;;;;;5032633;28;20381;-56
2020/12/05 01:38:12;;;;;;;39.85;14.15;;;6.10;89.70;;;;;;5031283;28;20537;-55
2020/12/05 01:40:37;;;;;;;41.65;12.55;;;6.10;89.80;;;;;;5037074;28;20475;-56
2020/12/05 01:43:03;;;;;;;40.83;14.07;;;6.20;89.80;;;;;;4997666;28;20381;-57
2020/12/05 01:45:28;;;;;;;38.00;13.68;;;6.10;89.70;;;;;;5030634;28;20025;-57
2020/12/05 01:47:54;;;;;;;38.28;13.32;;;6.10;89.70;;;;;;5037581;28;20029;-55
2020/12/05 01:50:19;;;;;;;40.35;14.48;;;6.10;89.80;;;;;;5035095;28;20026;-56
2020/12/05 01:52:45;;;;;;;32.50;13.15;;;6.10;89.80;;;;;;5013845;28;20037;-55
2020/12/05 01:55:10;;;;;;;39.28;13.15;;;6.10;89.80;;;;;;5039473;28;20497;-55
2020/12/05 01:57:36;;;;;;;40.78;13.35;;;6.10;89.80;;;;;;5039305;28;20114;-56
2020/12/05 02:00:02;;;;;;;34.92;13.10;;;6.10;89.80;;;;;;5030661;28;20535;-56
2020/12/05 02:02:28;;;;;;;32.60;12.45;;;6.10;89.80;;;;;;5031738;28;20091;-56
2020/12/05 02:05:05;;;;;;;36.95;12.63;;;6.00;89.90;;;;;;5030218;28;20042;-55
2020/12/05 02:07:47;;;;;;;28.15;11.77;;;6.00;89.80;;;;;;5027753;28;20029;-55
2020/12/05 02:10:15;;;;;;;37.90;12.45;;;6.00;89.90;;;;;;5040696;28;20374;-56
2020/12/05 02:12:49;;;;;;;36.50;13.15;;;6.00;89.90;;;;;;5030895;28;20225;-55
2020/12/05 02:15:26;;;;;;;31.10;11.85;;;6.00;90.00;;;;;;5022291;28;20572;-55
2020/12/05 02:18:03;;;;;;;35.78;12.45;;;6.00;90.00;;;;;;5030040;28;20182;-55
2020/12/05 02:20:36;;;;;;;25.25;12.10;;;6.00;90.00;;;;;;5028765;28;20065;-55
2020/12/05 02:23:12;;;;;;;31.33;12.38;;;6.00;90.00;;;;;;5028907;28;20033;-56
2020/12/05 02:25:55;;;;;;;34.65;12.50;;;6.00;90.00;;;;;;5029889;28;20061;-56
2020/12/05 02:28:20;;;;;;;24.83;11.88;;;6.00;90.00;;;;;;5041423;28;20026;-56
2020/12/05 02:30:46;;;;;;;31.45;11.73;;;5.90;90.00;;;;;;5007537;28;20037;-55
2020/12/05 02:33:12;;;;;;;31.35;11.73;;;5.90;90.00;;;;;;5033831;28;20044;-56
2020/12/05 02:35:38;;;;;;;34.30;12.13;;;5.90;90.00;;;;;;5042700;28;20491;-56
2020/12/05 02:38:31;;;;;;;26.52;10.95;;;5.90;90.00;;;;;;5033940;28;20029;-56
2020/12/05 02:40:56;;;;;;;28.80;10.45;;;5.90;90.00;;;;;;5042576;28;20363;-55
2020/12/05 02:43:22;;;;;;;29.50;9.95;;;5.90;90.00;;;;;;5041438;28;20127;-55
2020/12/05 02:45:47;;;;;;;28.60;11.13;;;5.90;90.00;;;;;;5039036;28;20025;-56
2020/12/05 02:48:13;;;;;;;30.55;11.60;;;5.90;90.00;;;;;;5038308;28;20564;-55
2020/12/05 02:50:38;;;;;;;20.27;10.05;;;5.90;90.00;;;;;;5034331;28;20516;-56
2020/12/05 02:53:04;;;;;;;24.73;11.07;;;5.90;90.00;;;;;;5043670;28;20038;-55
2020/12/05 02:55:29;;;;;;;24.67;10.68;;;5.90;90.00;;;;;;5038457;28;20025;-55
2020/12/05 02:57:55;;;;;;;26.42;10.90;;;5.90;90.00;;;;;;5041047;28;20036;-55
2020/12/05 03:00:21;;;;;;;30.83;10.93;;;5.90;90.10;;;;;;5023332;28;20142;-55
2020/12/05 03:02:46;;;;;;;24.00;10.65;;;5.80;90.10;;;;;;5005156;28;20050;-55
2020/12/05 03:05:12;;;;;;;29.88;10.50;;;5.90;90.10;;;;;;5012076;28;20033;-55
2020/12/05 03:07:37;;;;;;;23.00;11.77;;;5.90;90.10;;;;;;5015696;28;20033;-55
2020/12/05 03:10:03;;;;;;;22.63;10.25;;;5.80;90.10;;;;;;4994409;28;20041;-56
2020/12/05 03:12:28;;;;;;;26.25;10.45;;;5.80;90.10;;;;;;5013033;28;20092;-55
2020/12/05 03:14:54;;;;;;;26.45;10.52;;;5.80;90.10;;;;;;5009330;28;20445;-55
2020/12/05 03:17:19;;;;;;;22.02;10.15;;;5.90;90.10;;;;;;5009623;28;20029;-55
2020/12/05 03:19:45;;;;;;;32.08;10.65;;;5.80;90.10;;;;;;5014558;28;20065;-55
2020/12/05 03:22:10;;;;;;;22.95;9.68;;;5.80;90.10;;;;;;5009243;28;20105;-56
2020/12/05 03:24:36;;;;;;;27.45;10.65;;;5.80;90.10;;;;;;5012042;28;20102;-55
2020/12/05 03:27:01;;;;;;;25.50;10.55;;;5.80;90.10;;;;;;5021404;28;20055;-55
2020/12/05 03:29:27;;;;;;;24.05;10.07;;;5.80;90.10;;;;;;5010560;28;20038;-55
2020/12/05 03:31:57;;;;;;;24.58;10.23;;;5.80;90.10;;;;;;5018865;28;20025;-56
2020/12/05 03:34:22;;;;;;;24.88;9.90;;;5.80;90.10;;;;;;5007788;28;20031;-55
2020/12/05 03:36:48;;;;;;;25.02;10.63;;;5.80;90.10;;;;;;5010024;28;20029;-56
2020/12/05 03:39:13;;;;;;;21.58;8.98;;;5.80;90.10;;;;;;5008244;28;20068;-56
2020/12/05 03:41:39;;;;;;;19.77;9.20;;;5.80;90.10;;;;;;5008602;28;20122;-56
2020/12/05 03:44:04;;;;;;;22.30;10.30;;;5.80;90.10;;;;;;4991550;28;20026;-56
2020/12/05 03:46:30;;;;;;;17.30;9.23;;;5.80;90.10;;;;;;5018863;28;20037;-55
2020/12/05 03:48:55;;;;;;;18.75;8.93;;;5.80;90.10;;;;;;5020270;28;20511;-56
2020/12/05 03:51:21;;;;;;;21.48;9.10;;;5.80;90.10;;;;;;5012251;28;20042;-55
2020/12/05 03:53:47;;;;;;;21.65;9.43;;;5.80;90.40;;;;;;5007560;28;20038;-56
2020/12/05 03:56:12;;;;;;;25.55;9.95;;;5.80;90.10;;;;;;5013934;28;20026;-55
2020/12/05 03:58:39;;;;;;;17.30;8.98;;;5.80;90.10;;;;;;5013370;28;20044;-55
2020/12/05 04:01:05;;;;;;;24.95;9.35;;;5.80;90.10;;;;;;4989946;28;20037;-56
2020/12/05 04:03:30;;;;;;;20.55;9.48;;;5.80;90.10;;;;;;4991237;28;20021;-55
2020/12/05 04:05:56;;;;;;;20.92;8.85;;;5.80;90.20;;;;;;5002968;28;20486;-56
2020/12/05 04:08:21;;;;;;;17.60;9.30;;;5.80;90.20;;;;;;5025251;28;20038;-55
2020/12/05 04:10:47;;;;;;;17.90;8.45;;;5.80;90.20;;;;;;5008514;28;20065;-55
2020/12/05 04:13:12;;;;;;;19.95;8.68;;;5.80;90.10;;;;;;5008941;28;20034;-57
2020/12/05 04:15:38;;;;;;;24.42;9.75;;;5.80;90.20;;;;;;4988364;28;20097;-54
2020/12/05 04:18:04;;;;;;;16.90;8.45;;;5.80;90.20;;;;;;5011017;28;20394;-56
2020/12/05 04:20:29;;;;;;;15.85;8.48;;;5.80;90.20;;;;;;5001766;28;20737;-56
2020/12/05 04:22:55;;;;;;;19.13;7.65;;;5.80;90.20;;;;;;5010132;28;20084;-55
2020/12/05 04:25:23;;;;;;;23.90;8.35;;;5.80;90.20;;;;;;5009218;28;20101;-55
2020/12/05 04:27:48;;;;;;;18.70;8.20;;;5.80;90.20;;;;;;5010753;28;20065;-55
2020/12/05 04:30:14;;;;;;;17.77;9.18;;;5.80;90.20;;;;;;4999995;28;20076;-55
2020/12/05 04:32:39;;;;;;;16.70;8.68;;;5.80;90.20;;;;;;5009160;28;20042;-56
2020/12/05 04:35:05;;;;;;;13.55;7.88;;;5.80;90.20;;;;;;5009248;28;20061;-55
2020/12/05 04:37:30;;;;;;;17.50;8.32;;;5.80;90.20;;;;;;5017235;28;20212;-55
2020/12/05 04:39:56;;;;;;;19.25;7.90;;;5.80;90.20;;;;;;5008943;28;20026;-56
2020/12/05 04:42:21;;;;;;;14.68;7.93;;;5.80;90.20;;;;;;5007588;28;20038;-55
2020/12/05 04:44:47;;;;;;;19.92;7.75;;;5.80;90.20;;;;;;5007503;28;20709;-55
2020/12/05 04:47:14;;;;;;;17.17;8.15;;;5.80;90.20;;;;;;5007706;28;20287;-56
2020/12/05 04:49:39;;;;;;;17.67;8.73;;;5.80;90.20;;;;;;4995613;28;20473;-56
2020/12/05 04:52:25;;;;;;;16.77;7.32;;;5.80;90.20;;;;;;4994340;28;20049;-55
2020/12/05 04:54:52;;;;;;;18.35;8.07;;;5.70;90.10;;;;;;4990470;28;20041;-56
2020/12/05 04:57:22;;;;;;;18.90;8.43;;;5.80;90.20;;;;;;5007206;28;20464;-55
2020/12/05 04:59:49;;;;;;;16.15;7.68;;;5.80;90.20;;;;;;5029665;28;20028;-55
2020/12/05 05:02:15;;;;;;;15.93;7.85;;;5.70;90.20;;;;;;5007577;28;20081;-56
2020/12/05 05:04:40;;;;;;;16.25;7.45;;;5.80;90.20;;;;;;4991278;28;20465;-55
2020/12/05 05:07:06;;;;;;;18.50;7.80;;;5.80;90.20;;;;;;5008345;28;20037;-56
2020/12/05 05:09:31;;;;;;;18.38;7.63;;;5.80;90.30;;;;;;5007594;28;20028;-55
2020/12/05 05:11:57;;;;;;;14.70;6.43;;;5.70;90.20;;;;;;5011436;28;20022;-55
2020/12/05 05:14:33;;;;;;;17.83;8.32;;;5.80;90.30;;;;;;5012049;28;20108;-56
2020/12/05 05:17:05;;;;;;;16.52;7.82;;;5.70;90.30;;;;;;5002625;28;20474;-54
2020/12/05 05:19:35;;;;;;;15.40;6.88;;;5.70;90.20;;;;;;5008758;28;20033;-55
2020/12/05 05:22:01;;;;;;;18.40;7.45;;;5.70;90.20;;;;;;5006111;28;20022;-55
2020/12/05 05:24:26;;;;;;;16.70;7.20;;;5.80;90.30;;;;;;5011413;28;20280;-56
2020/12/05 05:27:00;;;;;;;13.55;6.97;;;5.70;90.20;;;;;;5007835;28;20041;-55
2020/12/05 05:29:32;;;;;;;13.80;6.57;;;5.70;90.20;;;;;;5005031;28;20363;-55
2020/12/05 05:34:35;;;;;;;13.27;7.25;;;5.80;90.30;;;;;;5005426;28;20030;-55
2020/12/05 05:37:01;;;;;;;13.48;6.57;;;5.70;90.20;;;;;;5003169;28;20060;-55
2020/12/05 05:39:27;;;;;;;14.35;6.75;;;5.70;90.30;;;;;;4973971;28;20121;-55
2020/12/05 05:41:54;;;;;;;12.18;6.30;;;5.70;90.30;;;;;;5008249;28;20374;-56
2020/12/05 05:44:21;;;;;;;12.93;6.63;;;5.70;90.30;;;;;;4989425;28;20025;-54
2020/12/05 05:46:48;;;;;;;13.20;6.85;;;5.70;90.30;;;;;;5005555;28;20524;-55
2020/12/05 05:49:32;;;;;;;13.60;6.22;;;5.80;90.30;;;;;;5006984;28;20045;-55
2020/12/05 05:52:01;;;;;;;11.18;6.57;;;5.80;90.30;;;;;;5018215;28;20022;-55
2020/12/05 05:54:31;;;;;;;19.67;7.20;;;5.70;90.20;;;;;;5022130;28;20037;-55
2020/12/05 05:57:00;;;;;;;12.45;7.07;;;5.70;90.20;;;;;;5022264;28;20038;-55
2020/12/05 05:59:27;;;;;;;12.20;6.72;;;5.80;90.30;;;;;;5007909;28;20127;-55
2020/12/05 06:01:53;;;;;;;14.15;6.65;;;5.80;90.30;;;;;;5021507;28;22907;-54
2020/12/05 06:04:24;;;;;;;13.05;6.65;;;5.80;90.30;;;;;;5006340;28;20037;-55
2020/12/05 06:06:51;;;;;;;15.27;6.80;;;5.80;90.30;;;;;;5006710;28;20030;-56
2020/12/05 06:09:24;;;;;;;12.60;6.15;;;5.80;90.40;;;;;;5008783;28;20528;-55
2020/12/05 06:11:54;;;;;;;11.18;5.68;;;5.90;90.40;;;;;;4989694;28;20117;-55
2020/12/05 06:14:21;;;;;;;13.48;6.47;;;5.80;90.40;;;;;;5006380;28;20124;-55
2020/12/05 06:16:56;;;;;;;9.93;6.18;;;5.80;90.40;;;;;;5006747;28;20045;-55
2020/12/05 06:19:22;;;;;;;;;;;5.80;90.40;;;;;;5026911;28;20053;-55
2020/12/05 06:21:49;;;;;;;13.07;7.18;;;5.90;90.50;;;;;;5011253;28;19952;-55
2020/12/05 06:24:15;;;;;;;12.88;6.40;;;5.90;90.40;;;;;;5012819;28;20030;-55
2020/12/05 06:26:41;;;;;;;15.23;6.10;;;5.80;90.40;;;;;;4992605;28;20118;-56
2020/12/05 06:29:06;;;;;;;9.95;6.00;;;5.80;90.50;;;;;;5025395;28;20121;-55
2020/12/05 06:31:42;;;;;;;12.40;5.40;;;5.80;90.50;;;;;;5007379;28;20105;-56
2020/12/05 06:34:32;;;;;;;12.20;5.82;;;5.80;90.60;;;;;;4994078;28;20104;-55
2020/12/05 06:36:58;;;;;;;13.90;6.00;;;5.80;90.60;;;;;;5019574;28;20114;-56
2020/12/05 06:39:23;;;;;;;13.10;6.70;;;5.90;90.50;;;;;;5009859;28;20610;-56
2020/12/05 06:41:52;;;;;;;14.30;5.70;;;5.90;90.50;;;;;;5014272;28;20041;-55
2020/12/05 06:44:19;;;;;;;20.05;5.50;;;5.90;90.50;;;;;;5009718;28;20030;-55
2020/12/05 06:46:52;;;;;;;19.20;6.18;;;5.90;90.60;;;;;;5009858;28;20026;-55
2020/12/05 06:49:50;;;;;;;13.27;5.00;;;5.90;90.70;;;;;;5015136;28;20022;-55
2020/12/05 06:52:22;;;;;;;19.13;5.68;;;5.90;90.80;;;;;;4989284;28;20129;-55
2020/12/05 06:55:04;;;;;;;17.27;5.78;;;5.90;90.90;;;;;;5016986;28;20057;-55
2020/12/05 06:57:31;;;;;;;12.00;5.60;;;5.90;91.00;;;;;;5010502;28;20033;-55
2020/12/05 07:00:21;;;;;;;10.80;5.78;;;5.90;91.10;;;;;;5011497;28;20030;-55
2020/12/05 07:03:00;;;;;;;17.75;6.07;;;6.00;91.20;;;;;;5005711;28;20405;-55
2020/12/05 07:05:26;;;;;;;22.48;5.43;;;6.00;91.30;;;;;;5001965;28;20037;-54
2020/12/05 07:07:56;;;;;;;15.23;5.57;;;6.00;91.40;;;;;;5024727;28;20068;-54
2020/12/05 07:10:41;;;;;;;14.10;5.78;;;6.00;91.50;;;;;;5025912;28;20033;-55
2020/12/05 07:13:32;;;;;;;19.60;5.50;;;6.00;91.70;;;;;;5008571;28;20046;-55
2020/12/05 07:16:23;;;;;;;14.45;5.63;;;6.10;91.80;;;;;;5006160;28;20175;-56
2020/12/05 07:18:50;;;;;;;11.35;4.95;;;6.10;91.70;;;;;;5005302;28;20457;-55
2020/12/05 07:21:16;;;;;;;15.27;5.63;;;6.10;91.50;;;;;;5004990;28;20072;-56
2020/12/05 07:23:42;;;;;;;19.60;6.72;;;6.10;91.40;;;;;;5024869;28;20053;-55
2020/12/05 07:26:07;;;;;;;32.63;7.78;;;6.10;91.80;;;;;;4992929;28;20481;-55
2020/12/05 07:28:33;;;;;;;13.07;6.80;;;6.10;91.80;;;;;;5014243;28;20030;-56
2020/12/05 07:30:59;;;;;;;18.40;5.70;;;6.10;91.70;;;;;;5017311;28;20080;-56
2020/12/05 07:33:24;;;;;;;17.10;6.15;;;6.10;91.70;;;;;;5007208;28;20066;-56
2020/12/05 07:36:04;;;;;;;15.10;5.72;;;6.10;91.80;;;;;;5006746;28;20069;-55
2020/12/05 07:38:31;;;;;;;16.35;6.07;;;6.10;91.80;;;;;;5008288;28;20133;-55
2020/12/05 07:40:56;;;;;;;11.40;5.53;;;6.10;91.60;;;;;;5008037;28;20034;-55
2020/12/05 07:43:22;;;;;;;12.00;5.65;;;6.10;91.50;;;;;;4992246;28;20025;-55
2020/12/05 07:45:48;;;;;;;8.93;5.47;;;6.10;91.40;;;;;;5009177;28;20026;-55
2020/12/05 07:48:16;;;;;;;16.83;5.50;;;6.10;91.40;;;;;;4991005;28;20049;-54
2020/12/05 07:50:41;;;;;;;18.75;5.43;;;6.10;91.50;;;;;;5023697;28;20026;-55
2020/12/05 07:53:32;;;;;;;11.57;5.18;;;6.10;91.40;;;;;;4996745;28;20076;-54
2020/12/05 07:55:59;;;;;;;11.80;5.03;;;6.10;91.40;;;;;;5006550;28;20022;-55
2020/12/05 07:58:25;;;;;;;13.45;5.93;;;6.10;91.40;;;;;;4974570;28;20540;-55
2020/12/05 08:00:54;;;;;;;12.40;5.80;;;6.10;91.40;;;;;;5004944;28;20038;-55
2020/12/05 08:03:49;;;;;;;11.15;5.38;;;6.10;91.40;;;;;;4990616;28;20402;-55
2020/12/05 08:06:25;;;;;;;14.93;5.60;;;6.10;91.40;;;;;;4995547;28;20125;-54
2020/12/05 08:08:56;;;;;;;12.50;6.00;;;6.10;91.40;;;;;;4991735;28;20122;-56
2020/12/05 08:11:21;;;;;;;13.88;4.80;;;6.10;91.50;;;;;;5006890;28;20030;-56
2020/12/05 08:13:47;;;;;;;11.68;5.00;;;6.10;91.60;;;;;;5005664;28;20052;-55
2020/12/05 08:16:12;;;;;;;7.50;4.57;;;6.10;91.70;;;;;;4991653;28;20065;-56
2020/12/05 08:18:38;;;;;;;7.03;3.78;;;6.10;91.90;;;;;;4990499;28;20086;-56
2020/12/05 08:21:04;;;;;;;8.45;5.05;;;6.00;91.90;;;;;;5008245;28;20018;-55
2020/12/05 08:23:37;;;;;;;7.97;4.70;;;6.00;92.10;;;;;;5008409;28;20022;-55
2020/12/05 08:26:03;;;;;;;14.75;4.97;;;6.00;92.20;;;;;;5022257;28;20049;-55
2020/12/05 08:28:31;;;;;;;11.25;5.03;;;6.00;92.30;;;;;;5007915;28;20029;-56
2020/12/05 08:30:56;;;;;;;7.43;4.70;;;6.00;92.40;;;;;;5011155;28;20116;-55
2020/12/05 08:33:22;;;;;;;7.43;4.75;;;6.00;92.40;;;;;;4991067;28;20112;-55
2020/12/05 08:35:47;;;;;;;6.80;5.35;;;5.90;92.40;;;;;;5006832;28;20036;-55
2020/12/05 08:38:20;;;;;;;9.48;4.95;;;5.90;92.50;;;;;;5006622;28;20029;-55
2020/12/05 08:40:45;;;;;;;6.10;5.53;;;5.90;92.70;;;;;;5004918;28;20049;-55
2020/12/05 08:43:11;;;;;;;6.05;5.45;;;5.80;92.70;;;;;;5009326;28;20037;-57
2020/12/05 08:45:39;;;;;;;5.55;4.97;;;5.80;92.80;;;;;;5007069;28;20026;-55
2020/12/05 08:48:16;;;;;;;5.38;4.78;;;5.80;92.90;;;;;;4991559;28;20025;-59
2020/12/05 08:50:41;;;;;;;5.57;4.38;;;5.80;92.90;;;;;;5024721;28;21110;-58
2020/12/05 08:53:07;;;;;;;4.82;4.32;;;5.80;93.00;;;;;;5006254;28;20046;-55
2020/12/05 08:55:32;;;;;;;5.88;5.07;;;5.80;93.10;;;;;;4999697;28;20522;-56
2020/12/05 08:57:59;;;;;;;5.95;4.75;;;5.80;93.10;;;;;;5024212;28;20512;-55
2020/12/05 09:00:25;;;;;;;4.25;3.85;;;5.80;93.10;;;;;;5007487;28;20025;-54
2020/12/05 09:02:51;;;;;;;5.15;4.65;;;5.90;93.10;;;;;;5005320;28;20405;-56
2020/12/05 09:05:17;;;;;;;7.05;4.30;;;5.80;93.10;;;;;;5007774;28;20445;-56
2020/12/05 09:08:01;;;;;;;5.03;4.53;;;5.80;93.10;;;;;;5033792;28;20037;-55
2020/12/05 09:10:27;;;;;;;6.18;4.50;;;5.80;93.00;;;;;;5012770;28;20472;-55
2020/12/05 09:12:53;;;;;;;4.70;4.30;;;5.80;93.10;;;;;;5005941;28;20034;-55
2020/12/05 09:15:18;;;;;;;7.35;4.28;;;5.80;93.10;;;;;;4990260;28;20437;-56
2020/12/05 09:17:44;;;;;;;7.28;4.32;;;5.80;93.00;;;;;;5004939;28;20537;-55
2020/12/05 09:20:20;;;;;;;11.35;5.32;;;5.90;93.00;;;;;;4968619;28;20433;-55
2020/12/05 09:22:49;;;;;;;9.45;4.90;;;5.90;93.10;;;;;;5007762;28;20458;-55
2020/12/05 09:25:35;;;;;;;10.63;4.82;;;5.90;93.30;;;;;;4995986;28;20030;-55
2020/12/05 09:28:02;;;;;;;24.05;5.65;;;6.00;93.10;;;;;;5004373;28;20385;-55
2020/12/05 09:30:28;;;;;;;25.23;6.43;;;6.00;93.00;;;;;;5002149;28;20493;-55
2020/12/05 09:32:53;;;;;;;15.52;5.68;;;6.00;93.00;;;;;;5005919;28;20037;-56
2020/12/05 09:35:20;;;;;;;16.85;5.38;;;6.10;93.10;;;;;;5001160;28;20038;-57
2020/12/05 09:37:46;;;;;;;29.42;6.40;;;6.10;93.10;;;;;;5001229;28;20058;-55
2020/12/05 09:40:13;;;;;;;20.35;5.32;;;6.10;93.20;;;;;;4998655;28;20045;-55
2020/12/05 09:42:39;;;;;;;35.28;6.80;;;6.20;93.10;;;;;;5000401;28;20034;-56
2020/12/05 09:45:05;;;;;;;25.83;6.13;;;6.20;93.20;;;;;;4998359;28;20050;-55
2020/12/05 09:47:30;;;;;;;29.85;5.70;;;6.20;93.30;;;;;;4982544;28;20025;-55
2020/12/05 09:49:56;;;;;;;23.50;7.50;;;6.20;93.10;;;;;;4994453;28;20356;-56
2020/12/05 09:52:21;;;;;;;42.78;7.18;;;6.20;93.30;;;;;;5001499;28;20381;-56
2020/12/05 09:54:47;;;;;;;40.50;7.20;;;6.30;93.50;;;;;;4994932;28;20027;-55
2020/12/05 09:57:15;;;;;;;51.63;8.23;;;6.30;93.60;;;;;;5000272;28;20038;-56
2020/12/05 09:59:42;;;;;;;38.53;7.65;;;6.40;93.60;;;;;;4984596;28;20157;-57
2020/12/05 10:02:07;;;;;;;30.98;7.85;;;6.40;93.60;;;;;;5002930;28;20130;-56
2020/12/05 10:04:33;;;;;;;55.60;10.13;;;6.50;93.60;;;;;;5018468;28;20026;-56
2020/12/05 10:06:58;;;;;;;69.30;9.77;;;6.50;93.70;;;;;;5004461;28;20359;-57
2020/12/05 10:09:24;;;;;;;82.88;12.05;;;6.50;93.80;;;;;;5001589;28;20056;-57
2020/12/05 10:11:49;;;;;;;88.72;11.13;;;6.60;93.90;;;;;;5008866;28;20121;-57
2020/12/05 10:14:15;;;;;;;69.35;8.93;;;6.60;93.90;;;;;;5008173;28;20482;-56
2020/12/05 10:16:40;;;;;;;57.67;9.15;;;6.60;93.80;;;;;;5007234;28;20026;-55
2020/12/05 10:19:06;;;;;;;75.45;10.05;;;6.70;93.80;;;;;;5009200;28;20104;-56
2020/12/05 10:21:31;;;;;;;62.90;10.10;;;6.80;93.90;;;;;;5023565;28;20462;-55
2020/12/05 10:23:57;;;;;;;70.80;11.23;;;6.70;93.80;;;;;;5008598;28;20061;-56
2020/12/05 10:26:22;;;;;;;72.20;9.73;;;6.80;93.70;;;;;;5007390;28;20109;-56
2020/12/05 10:28:48;;;;;;;74.55;11.82;;;6.80;93.60;;;;;;5007935;28;20040;-55
2020/12/05 10:31:13;;;;;;;101.22;12.27;;;6.80;93.70;;;;;;4991596;28;20056;-55
2020/12/05 10:33:39;;;;;;;95.38;11.65;;;6.90;93.90;;;;;;5007626;28;20038;-55
2020/12/05 10:36:04;;;;;;;83.70;12.50;;;6.90;93.80;;;;;;5006264;28;20034;-56
2020/12/05 10:38:30;;;;;;;73.35;10.10;;;7.00;93.90;;;;;;5007806;28;20192;-56
2020/12/05 10:40:55;;;;;;;67.00;10.15;;;7.10;93.60;;;;;;5007778;28;20080;-57
2020/12/05 10:43:21;;;;;;;58.90;12.05;;;7.10;93.70;;;;;;5007671;28;20025;-55
2020/12/05 10:45:47;;;;;;;66.97;10.27;;;7.20;93.60;;;;;;5008114;28;20034;-55
2020/12/05 10:48:12;;;;;;;90.95;12.48;;;7.20;93.50;;;;;;5008732;28;20038;-55
2020/12/05 10:50:38;;;;;;;93.78;14.70;;;7.30;93.40;;;;;;5004527;28;20490;-56
2020/12/05 10:53:03;;;;;;;91.95;12.63;;;7.30;93.30;;;;;;5008224;28;20036;-56
2020/12/05 10:55:29;;;;;;;85.30;12.40;;;7.30;93.30;;;;;;5024735;28;20519;-56
2020/12/05 10:57:56;;;;;;;99.47;14.18;;;7.30;93.30;;;;;;5008649;28;20493;-56
2020/12/05 11:00:21;;;;;;;119.20;13.95;;;7.30;93.30;;;;;;4989787;28;20014;-56
2020/12/05 11:02:47;;;;;;;78.32;10.98;;;7.40;93.40;;;;;;4998303;28;20052;-56
2020/12/05 11:05:12;;;;;;;92.00;12.38;;;7.40;93.40;;;;;;5012542;28;20040;-55
2020/12/05 11:07:38;;;;;;;73.30;10.20;;;7.40;93.30;;;;;;5024725;28;20157;-56
2020/12/05 11:10:03;;;;;;;108.15;13.15;;;7.40;93.30;;;;;;5017818;28;20305;-56
2020/12/05 11:12:29;;;;;;;94.70;14.30;;;7.50;93.30;;;;;;5014038;28;20500;-56
2020/12/05 11:14:55;;;;;;;120.15;13.32;;;7.50;93.40;;;;;;5022905;28;20400;-56
2020/12/05 11:17:20;;;;;;;84.85;12.15;;;7.50;93.40;;;;;;5022833;28;20109;-55
2020/12/05 11:19:46;;;;;;;101.88;13.70;;;7.50;93.30;;;;;;5010423;28;20445;-56
2020/12/05 11:22:12;;;;;;;159.52;16.58;;;7.50;93.30;;;;;;5011454;28;20477;-56
2020/12/05 11:24:37;;;;;;;106.60;12.80;;;7.50;93.30;;;;;;5009434;28;20485;-57
2020/12/05 11:27:03;;;;;;;82.35;13.52;;;7.50;93.30;;;;;;5006379;28;20042;-56
2020/12/05 11:29:28;;;;;;;77.32;11.15;;;7.50;93.30;;;;;;5006839;28;20421;-56
2020/12/05 11:31:54;;;;;;;84.82;14.05;;;7.50;93.20;;;;;;5011128;28;20476;-55
2020/12/05 11:34:20;;;;;;;95.55;11.93;;;7.60;93.20;;;;;;5006820;28;20638;-57
2020/12/05 11:36:45;;;;;;;158.63;17.70;;;7.60;93.10;;;;;;5005320;28;20030;-56
2020/12/05 11:39:11;;;;;;;95.43;13.90;;;7.60;93.10;;;;;;4998778;28;20031;-56
2020/12/05 11:41:36;;;;;;;70.20;12.70;;;7.70;93.10;;;;;;4994549;28;20022;-55
2020/12/05 11:44:05;;;;;;;76.80;13.68;;;7.60;93.00;;;;;;5005123;28;20045;-56
2020/12/05 11:46:31;;;;;;;91.85;15.00;;;7.70;92.90;;;;;;5001535;28;20022;-56
2020/12/05 11:48:57;;;;;;;60.53;11.35;;;7.70;92.80;;;;;;5006695;28;20137;-55
2020/12/05 11:51:24;;;;;;;168.88;18.45;;;7.70;92.70;;;;;;5006618;28;20097;-56
2020/12/05 11:53:49;;;;;;;65.93;13.32;;;7.70;92.60;;;;;;5007338;28;20034;-55
2020/12/05 11:56:15;;;;;;;83.03;14.98;;;7.70;92.60;;;;;;4970432;28;20176;-56
2020/12/05 11:58:40;;;;;;;85.07;14.18;;;7.70;92.50;;;;;;4987866;28;20040;-56
2020/12/05 12:01:06;;;;;;;68.28;13.45;;;7.80;92.40;;;;;;5002820;28;20132;-56
2020/12/05 12:03:32;;;;;;;115.38;13.55;;;7.80;92.40;;;;;;5021751;28;20034;-55
2020/12/05 12:05:57;;;;;;;86.90;13.38;;;7.80;92.40;;;;;;5006060;28;20477;-56
2020/12/05 12:08:23;;;;;;;67.75;13.30;;;7.80;92.40;;;;;;5004531;28;20026;-55
2020/12/05 12:10:48;;;;;;;87.30;13.43;;;7.80;92.30;;;;;;5005028;28;20046;-56
2020/12/05 12:13:14;;;;;;;72.75;13.32;;;7.90;92.30;;;;;;5006783;28;20022;-56
2020/12/05 12:15:39;;;;;;;88.60;13.77;;;7.80;92.20;;;;;;5004642;28;20551;-56
2020/12/05 12:18:05;;;;;;;78.38;15.13;;;7.90;92.20;;;;;;5003353;28;20084;-56
2020/12/05 12:20:30;;;;;;;67.65;14.38;;;7.80;92.20;;;;;;5005283;28;20483;-56
2020/12/05 12:22:56;;;;;;;58.17;13.23;;;7.90;92.20;;;;;;5006563;28;20033;-56
2020/12/05 12:25:21;;;;;;;55.30;12.15;;;7.90;92.20;;;;;;5006220;28;20034;-56
2020/12/05 12:27:47;;;;;;;63.35;13.50;;;7.90;92.00;;;;;;5004793;28;20089;-55
2020/12/05 12:30:12;;;;;;;54.28;13.18;;;7.90;91.90;;;;;;5005674;28;20484;-55
2020/12/05 12:32:38;;;;;;;82.60;13.43;;;7.90;91.90;;;;;;4991160;28;20709;-56
2020/12/05 12:35:03;;;;;;;43.40;11.45;;;7.90;92.10;;;;;;5025194;28;20042;-56
2020/12/05 12:37:29;;;;;;;53.60;13.27;;;7.90;91.80;;;;;;5002708;28;20040;-57
2020/12/05 12:39:55;;;;;;;52.47;12.63;;;7.90;91.70;;;;;;4986582;28;20021;-53
2020/12/05 12:42:25;;;;;;;76.32;13.13;;;7.90;91.70;;;;;;5006926;28;20628;-56
2020/12/05 12:44:50;;;;;;;60.53;12.63;;;8.00;91.70;;;;;;5007493;28;20108;-56
2020/12/05 12:49:56;;;;;;;108.53;16.35;;;8.00;91.50;;;;;;5004661;28;20053;-55